createdAt,value
2022-08-10T00:02:34.000Z,11.58
2022-08-10T00:07:35.000Z,11.42
2022-08-10T00:13:04.000Z,12.2
2022-08-10T00:17:34.000Z,11.26
2022-08-10T00:22:35.000Z,10.8
2022-08-10T00:28:13.000Z,11.32
2022-08-10T00:32:34.000Z,11.59
2022-08-10T00:37:34.000Z,11.17
2022-08-10T00:42:35.000Z,11.17
2022-08-10T00:47:47.000Z,11.53
2022-08-10T00:52:35.000Z,11.18
2022-08-10T00:57:35.000Z,12.02
2022-08-10T01:02:35.000Z,12.17
2022-08-10T01:07:35.000Z,10.23
2022-08-10T01:12:51.000Z,10.23
2022-08-10T01:18:00.000Z,10.34
2022-08-10T01:22:35.000Z,9.93
2022-08-10T01:27:37.000Z,9.96
2022-08-10T01:32:35.000Z,9.91
2022-08-10T01:37:35.000Z,9.94
2022-08-10T01:42:35.000Z,9.86
2022-08-10T01:47:37.000Z,9.86
2022-08-10T01:52:34.000Z,10.01
2022-08-10T01:57:35.000Z,9.32
2022-08-10T02:02:35.000Z,8.91
2022-08-10T02:07:35.000Z,8.74
2022-08-10T02:12:34.000Z,9.53
2022-08-10T02:18:11.000Z,8.09
2022-08-10T02:22:48.000Z,8.26
2022-08-10T02:27:34.000Z,8.26
2022-08-10T02:32:48.000Z,8.2
2022-08-10T02:37:35.000Z,8.82
2022-08-10T02:45:40.000Z,8.72
2022-08-10T02:52:34.000Z,7.64
2022-08-10T02:57:35.000Z,7.39
2022-08-10T03:02:35.000Z,6.8
2022-08-10T03:07:54.000Z,7.78
2022-08-10T03:12:48.000Z,7.54
2022-08-10T03:17:35.000Z,7.54
2022-08-10T03:22:34.000Z,8.16
2022-08-10T03:27:34.000Z,7.74
2022-08-10T03:32:35.000Z,8.07
2022-08-10T03:37:35.000Z,7.68
2022-08-10T03:42:35.000Z,7.26
2022-08-10T03:47:35.000Z,7.52
2022-08-10T03:52:35.000Z,8.42
2022-08-10T03:57:35.000Z,9.14
2022-08-10T04:02:58.000Z,9.28
2022-08-10T04:07:34.000Z,9.33
2022-08-10T04:12:35.000Z,10.11
2022-08-10T04:18:16.000Z,9.79
2022-08-10T04:22:34.000Z,10.59
2022-08-10T04:27:35.000Z,11.45
2022-08-10T04:32:38.000Z,11.45
2022-08-10T04:37:35.000Z,10
2022-08-10T04:42:34.000Z,9.38
2022-08-10T04:48:10.000Z,9.67
2022-08-10T04:57:35.000Z,9.36
2022-08-10T05:02:42.000Z,8.59
2022-08-10T05:07:34.000Z,10.18
2022-08-10T05:12:34.000Z,8.76
2022-08-10T05:17:35.000Z,9.26
2022-08-10T05:27:34.000Z,9.17
2022-08-10T05:32:35.000Z,8.77
2022-08-10T05:38:23.000Z,9.38
2022-08-10T05:42:35.000Z,7.56
2022-08-10T05:47:37.000Z,8.1
2022-08-10T05:57:35.000Z,7.99
2022-08-10T06:02:51.000Z,7.66
2022-08-10T06:07:35.000Z,19.57
2022-08-10T06:12:40.000Z,8.01
2022-08-10T06:17:35.000Z,6.46
2022-08-10T06:22:35.000Z,6.46
2022-08-10T06:27:45.000Z,6.31
2022-08-10T06:42:35.000Z,6.17
2022-08-10T06:47:35.000Z,11.08
2022-08-10T06:52:35.000Z,5.87
2022-08-10T06:57:34.000Z,6.89
2022-08-10T07:02:35.000Z,6.98
2022-08-10T07:07:35.000Z,11.59
2022-08-10T07:12:35.000Z,7.04
2022-08-10T07:17:34.000Z,5.81
2022-08-10T07:24:09.000Z,5.67
2022-08-10T07:32:35.000Z,6.39
2022-08-10T07:37:35.000Z,4.37
2022-08-10T07:42:34.000Z,4.37
2022-08-10T07:48:04.000Z,4.61
2022-08-10T07:52:34.000Z,4.79
2022-08-10T07:57:41.000Z,11.25
2022-08-10T08:02:34.000Z,7.9
2022-08-10T08:07:34.000Z,4.58
2022-08-10T08:12:35.000Z,5.14
2022-08-10T08:17:46.000Z,6.36
2022-08-10T08:27:34.000Z,13.45
2022-08-10T08:32:35.000Z,6.29
2022-08-10T08:38:44.000Z,7.26
2022-08-10T08:48:15.000Z,6.06
2022-08-10T08:58:01.000Z,6.56
2022-08-10T09:02:34.000Z,5.66
2022-08-10T09:08:12.000Z,4.97
2022-08-10T09:12:35.000Z,4.9
2022-08-10T09:17:34.000Z,4.9
2022-08-10T09:22:35.000Z,5.24
2022-08-10T09:27:34.000Z,6.39
2022-08-10T09:36:37.000Z,5.82
2022-08-10T09:42:35.000Z,6.39
2022-08-10T09:48:12.000Z,7.08
2022-08-10T09:52:34.000Z,8.99
2022-08-10T09:58:07.000Z,11.4
2022-08-10T10:02:35.000Z,6.05
2022-08-10T10:07:35.000Z,5.58
2022-08-10T10:12:35.000Z,6.31
2022-08-10T10:17:34.000Z,6.63
2022-08-10T10:22:34.000Z,5.46
2022-08-10T10:27:34.000Z,4.86
2022-08-10T10:32:42.000Z,5.07
2022-08-10T10:38:13.000Z,5
2022-08-10T10:42:55.000Z,5
2022-08-10T10:47:35.000Z,5.94
2022-08-10T10:52:35.000Z,5.47
2022-08-10T10:58:10.000Z,6.02
2022-08-10T11:02:35.000Z,6.81
2022-08-10T11:07:44.000Z,6.94
2022-08-10T11:12:37.000Z,5.88
2022-08-10T11:17:34.000Z,6.22
2022-08-10T11:22:35.000Z,4.91
2022-08-10T11:27:34.000Z,5.09
2022-08-10T11:37:35.000Z,6.34
2022-08-10T11:42:46.000Z,5.92
2022-08-10T11:47:34.000Z,4.77
2022-08-10T11:52:34.000Z,4.67
2022-08-10T11:58:03.000Z,4.62
2022-08-10T12:02:34.000Z,4.84
2022-08-10T12:10:21.000Z,8.25
2022-08-10T12:17:35.000Z,4.54
2022-08-10T12:22:35.000Z,8.5
2022-08-10T12:32:35.000Z,9.31
2022-08-10T12:37:34.000Z,9.31
2022-08-10T12:42:49.000Z,8.8
2022-08-10T12:52:35.000Z,6.48
2022-08-10T12:57:35.000Z,6.09
2022-08-10T13:08:37.000Z,5.57
2022-08-10T13:12:50.000Z,6.06
2022-08-10T13:17:49.000Z,7.82
2022-08-10T13:22:35.000Z,7.82
2022-08-10T13:28:11.000Z,8.84
2022-08-10T13:32:34.000Z,8.84
2022-08-10T13:37:35.000Z,7.99
2022-08-10T13:42:42.000Z,8.16
2022-08-10T13:47:34.000Z,6.4
2022-08-10T13:52:35.000Z,5.29
2022-08-10T13:57:35.000Z,4.39
2022-08-10T14:07:35.000Z,5.27
2022-08-10T14:12:43.000Z,5.58
2022-08-10T14:17:34.000Z,5.27
2022-08-10T14:22:44.000Z,5.07
2022-08-10T14:28:12.000Z,5.34
2022-08-10T14:32:35.000Z,5.34
2022-08-10T14:37:35.000Z,6.47
2022-08-10T14:42:37.000Z,6.35
2022-08-10T14:48:04.000Z,6.28
2022-08-10T14:52:37.000Z,5.03
2022-08-10T14:58:30.000Z,7.42
2022-08-10T15:03:01.000Z,10.11
2022-08-10T15:07:35.000Z,9.39
2022-08-10T15:12:37.000Z,8.85
2022-08-10T15:17:36.000Z,10.98
2022-08-10T15:22:55.000Z,12.27
2022-08-10T15:27:35.000Z,11.3
2022-08-10T15:32:35.000Z,11.43
2022-08-10T15:37:49.000Z,11.29
2022-08-10T15:42:35.000Z,8.78
2022-08-10T15:47:35.000Z,8.78
2022-08-10T15:53:11.000Z,10.02
2022-08-10T15:57:35.000Z,10.02
2022-08-10T16:02:35.000Z,9.59
2022-08-10T16:07:56.000Z,9.03
2022-08-10T16:12:40.000Z,20.09
2022-08-10T16:17:35.000Z,9.31
2022-08-10T16:22:47.000Z,9.05
2022-08-10T16:27:35.000Z,10.09
2022-08-10T16:32:35.000Z,8.26
2022-08-10T16:37:35.000Z,7.33
2022-08-10T16:42:34.000Z,6.65
2022-08-10T16:47:37.000Z,7.94
2022-08-10T16:52:34.000Z,5.89
2022-08-10T16:57:35.000Z,5.25
2022-08-10T17:02:35.000Z,5.25
2022-08-10T17:07:40.000Z,5.1
2022-08-10T17:12:37.000Z,4.83
2022-08-10T17:17:35.000Z,5.31
2022-08-10T17:22:35.000Z,5.31
2022-08-10T17:28:19.000Z,5.7
2022-08-10T17:32:35.000Z,7.19
2022-08-10T17:37:34.000Z,6.74
2022-08-10T17:42:35.000Z,7.25
2022-08-10T17:47:37.000Z,8.23
2022-08-10T17:52:35.000Z,7.42
2022-08-10T17:57:35.000Z,13.16
2022-08-10T18:02:35.000Z,11.18
2022-08-10T18:07:34.000Z,8.78
2022-08-10T18:12:46.000Z,9.32
2022-08-10T18:17:34.000Z,9.32
2022-08-10T18:22:35.000Z,7.47
2022-08-10T18:28:15.000Z,6.86
2022-08-10T18:32:35.000Z,6.94
2022-08-10T18:37:35.000Z,6.98
2022-08-10T18:42:35.000Z,7.53
2022-08-10T18:47:34.000Z,6.76
2022-08-10T18:52:34.000Z,6.33
2022-08-10T18:57:35.000Z,7.39
2022-08-10T19:02:38.000Z,8.31
2022-08-10T19:07:35.000Z,7.58
2022-08-10T19:12:41.000Z,6.67
2022-08-10T19:22:35.000Z,5.55
2022-08-10T19:27:35.000Z,5.87
2022-08-10T19:32:35.000Z,7.35
2022-08-10T19:37:42.000Z,6.17
2022-08-10T19:42:41.000Z,5.67
2022-08-10T19:47:35.000Z,4.83
2022-08-10T19:52:34.000Z,4.76
2022-08-10T19:57:34.000Z,4.79
2022-08-10T20:02:34.000Z,4.79
2022-08-10T20:07:34.000Z,5.11
2022-08-10T20:12:35.000Z,4.71
2022-08-10T20:22:40.000Z,4.45
2022-08-10T20:28:10.000Z,4.66
2022-08-10T20:32:35.000Z,4.52
2022-08-10T20:38:14.000Z,3.79
2022-08-10T20:42:35.000Z,3.55
2022-08-10T20:47:34.000Z,3.58
2022-08-10T20:52:34.000Z,3.44
2022-08-10T21:08:10.000Z,2.9
2022-08-10T21:22:35.000Z,3
2022-08-10T21:27:37.000Z,3.97
2022-08-10T21:32:35.000Z,4.72
2022-08-10T21:37:49.000Z,4.63
2022-08-10T21:42:35.000Z,4.28
2022-08-10T21:47:53.000Z,4.79
2022-08-10T21:52:35.000Z,3.8
2022-08-10T21:57:34.000Z,3.91
2022-08-10T22:02:42.000Z,3.47
2022-08-10T22:07:35.000Z,3.58
2022-08-10T22:12:42.000Z,3.77
2022-08-10T22:18:20.000Z,4.22
2022-08-10T22:22:38.000Z,3.93
2022-08-10T22:27:56.000Z,4.99
2022-08-10T22:32:34.000Z,4.99
2022-08-10T22:37:35.000Z,7.61
2022-08-10T22:42:35.000Z,12.67
2022-08-10T22:47:34.000Z,15.97
2022-08-10T22:52:34.000Z,20.96
2022-08-10T22:57:35.000Z,19.98
2022-08-10T23:02:34.000Z,19.78
2022-08-10T23:07:35.000Z,20.6
2022-08-10T23:18:11.000Z,22.06
2022-08-10T23:22:35.000Z,21.59
2022-08-10T23:27:49.000Z,21.43
2022-08-10T23:32:35.000Z,22.38
2022-08-10T23:37:35.000Z,17.17
2022-08-10T23:42:35.000Z,16.36
2022-08-10T23:47:35.000Z,16.36
2022-08-10T23:52:34.000Z,15.5
2022-08-10T23:57:35.000Z,14.78
